Yankton Indian Reservation, South Dakota
Current Conditions -  °F | °C
As of 5:52 PM on Sunday 25 Jan 2015 (Local Time) from KVTN Reporting Station
Overcast Overcast  
Wind Chill: 35°   Ceiling: 7000
Heat Index: 35°   Visibility: 10mi
Dew Point: 26°   Wind: 3mph
Humidity: 70%   Direction: 230°SW
Pressure: 29.99"   Gusts: NA
Location:  43.2328°N, 100.853°W
Report Text: KVTN 252352Z AUTO 23003KT 10SM OVC070 02/M03 A2999 RMK AO2 SLP176 T00171033 10078 20017 58011
Loading
Personal Weather Stations






























Interactive Weather Map New forecast layout! Learn more

10-Day Weather Forecast

Advertisements
Track Severe Weather on mobile